Indianapolis, Indiana
Traffic Map
Current Weather Conditions
Indianapolis, Indiana
Scattered Clouds
Scattered Clouds
20°
Feels Like: 20°
Wind Chill: 20° Ceiling: Unl
Heat Index: 20° Visibility: 10mi
Dew Point: 17° Wind: 6mph
Humidity: 81% Direction: 150° (SSE)
Pressure: 30.09in Gusts: 0mph
Raw Report DataKIND 290754Z 15005KT 10SM FEW220 FEW250 SCT300 20/17 A3009 RMK AO2 SLP181 T02000167
Traffic Incident Summary
Active as of:
Severity:
Category:
InformationThere was an issue retrieving the traffic information for this location. Please try a different location or try again shortly.
Advertisements
Track Severe Weather on mobile